createdAt,value
2023-04-27T00:01:52.551Z,28.40
2023-04-27T00:04:21.807Z,28.50
2023-04-27T00:06:49.548Z,28.60
2023-04-27T00:09:17.646Z,28.70
2023-04-27T00:11:45.296Z,28.80
2023-04-27T00:14:12.964Z,28.90
2023-04-27T00:16:40.898Z,29.00
2023-04-27T00:19:08.939Z,29.00
2023-04-27T00:21:37.952Z,29.10
2023-04-27T00:24:06.024Z,29.20
2023-04-27T00:26:33.694Z,29.30
2023-04-27T00:29:01.538Z,29.30
2023-04-27T00:31:29.235Z,29.50
2023-04-27T00:33:57.326Z,29.60
2023-04-27T00:36:25.043Z,29.60
2023-04-27T00:38:54.179Z,29.70
2023-04-27T00:41:22.960Z,29.80
2023-04-27T00:43:50.729Z,29.90
2023-04-27T00:46:19.575Z,30.00
2023-04-27T00:48:47.428Z,30.10
2023-04-27T00:51:15.095Z,30.10
2023-04-27T00:53:42.833Z,30.20
2023-04-27T00:56:13.159Z,30.20
2023-04-27T00:58:40.877Z,30.40
2023-04-27T01:01:08.607Z,30.40
2023-04-27T01:03:37.455Z,30.50
2023-04-27T01:06:05.426Z,30.60
2023-04-27T01:08:33.092Z,30.70
2023-04-27T01:11:03.556Z,30.70
2023-04-27T01:13:33.770Z,30.90
2023-04-27T01:16:02.236Z,30.90
2023-04-27T01:18:30.038Z,31.00
2023-04-27T01:20:58.000Z,31.10
2023-04-27T01:23:27.709Z,31.10
2023-04-27T01:25:55.380Z,31.20
2023-04-27T01:28:23.052Z,31.30
2023-04-27T01:30:51.123Z,31.30
2023-04-27T01:33:18.901Z,31.40
2023-04-27T01:35:49.184Z,31.50
2023-04-27T01:38:17.215Z,31.50
2023-04-27T01:40:46.401Z,31.60
2023-04-27T01:43:14.312Z,31.60
2023-04-27T01:45:42.022Z,31.70
2023-04-27T01:48:09.747Z,31.70
2023-04-27T01:50:37.476Z,31.80
2023-04-27T01:53:07.564Z,31.80
2023-04-27T01:55:35.258Z,31.90
2023-04-27T01:58:04.252Z,31.90
2023-04-27T02:00:33.421Z,31.90
2023-04-27T02:03:01.685Z,31.90
2023-04-27T02:05:29.618Z,31.90
2023-04-27T02:07:57.322Z,32.00
2023-04-27T02:10:25.217Z,32.00
2023-04-27T02:12:56.843Z,32.00
2023-04-27T02:15:25.923Z,32.00
2023-04-27T02:17:53.622Z,32.00
2023-04-27T02:20:21.373Z,32.00
2023-04-27T02:22:49.025Z,32.10
2023-04-27T02:25:16.772Z,32.00
2023-04-27T02:27:44.495Z,32.00
2023-04-27T02:30:13.340Z,32.00
2023-04-27T02:32:43.889Z,32.00
2023-04-27T02:35:11.906Z,32.00
2023-04-27T02:37:39.588Z,32.00
2023-04-27T02:40:09.360Z,32.00
2023-04-27T02:42:38.663Z,32.00
2023-04-27T02:45:08.009Z,32.00
2023-04-27T02:47:37.570Z,31.90
2023-04-27T02:50:07.526Z,31.90
2023-04-27T02:52:36.384Z,31.90
2023-04-27T02:55:04.118Z,31.90
2023-04-27T02:57:31.839Z,31.90
2023-04-27T02:59:59.542Z,31.90
2023-04-27T03:02:27.370Z,31.80
2023-04-27T03:04:55.950Z,31.80
2023-04-27T03:07:26.574Z,31.80
2023-04-27T03:09:54.216Z,31.80
2023-04-27T03:12:23.046Z,31.70
2023-04-27T03:14:50.742Z,31.70
2023-04-27T03:17:18.889Z,31.70
2023-04-27T03:19:49.026Z,31.70
2023-04-27T03:22:16.721Z,31.60
2023-04-27T03:24:45.884Z,31.60
2023-04-27T03:27:13.996Z,31.60
2023-04-27T03:29:41.662Z,31.60
2023-04-27T03:32:09.401Z,31.50
2023-04-27T03:34:38.837Z,31.50
2023-04-27T03:37:07.078Z,31.50
2023-04-27T03:39:37.948Z,31.50
2023-04-27T03:42:07.042Z,31.40
2023-04-27T03:44:36.289Z,31.40
2023-04-27T03:47:08.970Z,31.40
2023-04-27T03:49:38.769Z,31.40
2023-04-27T03:52:07.850Z,31.30
2023-04-27T03:54:36.256Z,31.30
2023-04-27T03:57:04.350Z,31.30
2023-04-27T03:59:33.383Z,31.30
2023-04-27T04:02:01.504Z,31.30
2023-04-27T04:04:29.507Z,31.20
2023-04-27T04:06:57.544Z,31.20
2023-04-27T04:09:26.103Z,31.20
2023-04-27T04:11:55.500Z,31.10
2023-04-27T04:14:23.481Z,31.10
2023-04-27T04:16:52.466Z,31.10
2023-04-27T04:19:22.164Z,31.00
2023-04-27T04:21:50.117Z,31.00
2023-04-27T04:24:19.344Z,31.00
2023-04-27T04:26:47.142Z,30.90
2023-04-27T04:29:15.257Z,30.90
2023-04-27T04:31:43.389Z,30.90
2023-04-27T04:34:12.751Z,30.90
2023-04-27T04:36:41.395Z,30.90
2023-04-27T04:39:09.247Z,30.80
2023-04-27T04:41:37.313Z,30.80
2023-04-27T04:44:05.360Z,30.70
2023-04-27T04:46:33.218Z,30.70
2023-04-27T04:49:02.341Z,30.70
2023-04-27T04:51:31.383Z,30.70
2023-04-27T04:54:01.190Z,30.70
2023-04-27T04:56:29.547Z,30.60
2023-04-27T04:59:01.479Z,30.60
2023-04-27T05:01:29.269Z,30.50
2023-04-27T05:03:57.132Z,30.50
2023-04-27T05:06:24.902Z,30.50
2023-04-27T05:08:53.947Z,30.50
2023-04-27T05:11:22.116Z,30.40
2023-04-27T05:13:49.802Z,30.40
2023-04-27T05:16:17.546Z,30.40
2023-04-27T05:18:45.235Z,30.40
2023-04-27T05:21:16.431Z,30.30
2023-04-27T05:23:44.249Z,30.30
2023-04-27T05:26:16.550Z,30.30
2023-04-27T05:28:44.251Z,30.30
2023-04-27T05:31:12.129Z,30.20
2023-04-27T05:33:40.473Z,30.20
2023-04-27T05:36:09.360Z,30.10
2023-04-27T05:38:40.044Z,30.10
2023-04-27T05:41:07.806Z,30.20
2023-04-27T05:43:38.498Z,30.10
2023-04-27T05:46:06.325Z,30.10
2023-04-27T05:48:34.158Z,30.00
2023-04-27T05:51:02.654Z,30.00
2023-04-27T05:53:30.740Z,30.00
2023-04-27T05:55:59.158Z,29.90
2023-04-27T05:58:26.882Z,29.90
2023-04-27T06:00:57.169Z,29.90
2023-04-27T06:03:25.077Z,29.90
2023-04-27T06:05:57.501Z,29.80
2023-04-27T06:08:27.161Z,29.90
2023-04-27T06:10:55.034Z,29.80
2023-04-27T06:13:22.919Z,29.70
2023-04-27T06:15:50.697Z,29.70
2023-04-27T06:18:19.713Z,29.70
2023-04-27T06:20:47.359Z,29.70
2023-04-27T06:23:15.020Z,29.70
2023-04-27T06:25:42.703Z,29.60
2023-04-27T06:28:10.594Z,29.60
2023-04-27T06:30:39.575Z,29.60
2023-04-27T06:33:07.633Z,29.50
2023-04-27T06:35:36.648Z,29.50
2023-04-27T06:38:06.665Z,29.50
2023-04-27T06:40:36.127Z,29.40
2023-04-27T06:43:03.949Z,29.40
2023-04-27T06:45:31.583Z,29.40
2023-04-27T06:47:59.313Z,29.40
2023-04-27T06:50:27.060Z,29.40
2023-04-27T06:52:56.203Z,29.30
2023-04-27T06:55:23.883Z,29.30
2023-04-27T06:57:51.660Z,29.30
2023-04-27T07:00:20.769Z,29.20
2023-04-27T07:02:48.646Z,29.20
2023-04-27T07:05:16.421Z,29.20
2023-04-27T07:07:44.344Z,29.20
2023-04-27T07:10:13.398Z,29.20
2023-04-27T07:12:41.543Z,29.20
2023-04-27T07:15:10.116Z,29.20
2023-04-27T07:17:37.844Z,29.10
2023-04-27T07:20:07.089Z,29.10
2023-04-27T07:22:34.848Z,29.00
2023-04-27T07:25:02.560Z,29.00
2023-04-27T07:27:31.772Z,29.00
2023-04-27T07:29:59.618Z,29.00
2023-04-27T07:32:27.473Z,29.00
2023-04-27T07:34:56.261Z,29.00
2023-04-27T07:37:23.988Z,28.90
2023-04-27T07:39:52.989Z,28.90
2023-04-27T07:42:22.174Z,28.80
2023-04-27T07:44:52.048Z,28.80
2023-04-27T07:47:19.861Z,28.80
2023-04-27T07:49:48.050Z,28.80
2023-04-27T07:52:15.869Z,28.70
2023-04-27T07:54:43.835Z,28.70
2023-04-27T07:57:11.936Z,28.70
2023-04-27T07:59:39.633Z,28.70
2023-04-27T08:02:19.051Z,28.70
2023-04-27T08:04:48.375Z,28.60
2023-04-27T08:07:16.547Z,28.60
2023-04-27T08:09:44.978Z,28.60
2023-04-27T08:12:12.728Z,28.60
2023-04-27T08:14:40.417Z,28.60
2023-04-27T08:17:09.440Z,28.60
2023-04-27T08:19:37.127Z,28.60
2023-04-27T08:22:04.832Z,29.00
2023-04-27T08:24:32.782Z,28.90
2023-04-27T08:27:00.932Z,29.00
2023-04-27T08:29:29.244Z,29.30
2023-04-27T08:31:59.922Z,29.60
2023-04-27T08:34:29.032Z,29.90
2023-04-27T08:36:57.182Z,30.30
2023-04-27T08:39:24.982Z,30.60
2023-04-27T08:41:52.809Z,30.80
2023-04-27T08:44:20.693Z,30.70
2023-04-27T08:46:48.778Z,30.70
2023-04-27T08:49:17.411Z,31.00
2023-04-27T08:51:46.692Z,31.30
2023-04-27T08:54:14.442Z,31.40
2023-04-27T08:56:42.401Z,31.40
2023-04-27T08:59:15.575Z,31.20
2023-04-27T09:01:45.176Z,31.10
2023-04-27T09:04:13.228Z,30.90
2023-04-27T09:06:41.255Z,30.70
2023-04-27T09:09:11.184Z,30.90
2023-04-27T09:11:39.895Z,31.10
2023-04-27T09:14:17.289Z,31.20
2023-04-27T09:16:45.455Z,31.30
2023-04-27T09:19:24.564Z,31.50
2023-04-27T09:21:52.513Z,31.60
2023-04-27T09:24:21.618Z,31.80
2023-04-27T09:26:50.770Z,32.00
2023-04-27T09:29:18.937Z,31.90
2023-04-27T09:31:46.740Z,32.00
2023-04-27T09:34:14.508Z,32.30
2023-04-27T09:36:42.184Z,32.30
2023-04-27T09:39:10.143Z,32.20
2023-04-27T09:41:39.152Z,32.30
2023-04-27T09:44:06.933Z,32.50
2023-04-27T09:46:34.663Z,32.40
2023-04-27T09:49:04.293Z,32.40
2023-04-27T09:51:32.608Z,32.00
2023-04-27T09:54:00.363Z,32.00
2023-04-27T09:56:32.306Z,32.00
2023-04-27T09:59:07.736Z,31.90
2023-04-27T10:01:40.622Z,31.90
2023-04-27T10:04:19.156Z,32.00
2023-04-27T10:07:08.679Z,32.10
2023-04-27T10:09:37.291Z,32.00
2023-04-27T10:12:15.506Z,32.00
2023-04-27T10:14:51.785Z,32.00
2023-04-27T10:17:19.770Z,32.00
2023-04-27T10:20:07.271Z,31.80
2023-04-27T10:22:39.822Z,31.80
2023-04-27T10:25:21.643Z,31.70
2023-04-27T10:27:53.585Z,31.70
2023-04-27T10:30:23.318Z,31.80
2023-04-27T10:32:52.382Z,31.80
2023-04-27T10:35:20.852Z,31.70
2023-04-27T10:37:48.651Z,31.70
2023-04-27T10:40:17.513Z,31.70
2023-04-27T10:42:45.725Z,31.60
2023-04-27T10:45:13.725Z,31.50
2023-04-27T10:47:44.030Z,31.30
2023-04-27T10:50:14.817Z,31.30
2023-04-27T10:52:42.878Z,31.30
2023-04-27T10:55:17.731Z,31.30
2023-04-27T10:57:49.984Z,31.30
2023-04-27T11:00:23.869Z,31.30
2023-04-27T11:02:53.848Z,31.20
2023-04-27T11:05:23.404Z,31.10
2023-04-27T11:07:51.621Z,31.00
2023-04-27T11:10:19.812Z,31.00
2023-04-27T11:12:47.612Z,31.00
2023-04-27T11:15:15.368Z,31.00
2023-04-27T11:17:43.127Z,30.90
2023-04-27T11:20:12.338Z,30.80
2023-04-27T11:22:46.707Z,30.80
2023-04-27T11:25:14.425Z,30.50
2023-04-27T11:27:42.558Z,30.40
2023-04-27T11:30:21.178Z,30.20
2023-04-27T11:32:49.005Z,30.20
2023-04-27T11:35:19.115Z,30.00
2023-04-27T11:37:56.886Z,29.90
2023-04-27T11:40:24.707Z,29.90
2023-04-27T11:42:58.116Z,29.70
2023-04-27T11:45:26.436Z,29.60
2023-04-27T11:47:54.253Z,29.50
2023-04-27T11:50:24.875Z,29.70
2023-04-27T11:52:53.014Z,29.70
2023-04-27T11:55:22.085Z,29.50
2023-04-27T11:57:49.936Z,29.40
2023-04-27T12:00:18.712Z,29.20
2023-04-27T12:02:46.532Z,28.90
2023-04-27T12:05:14.808Z,28.70
2023-04-27T12:07:44.049Z,28.70
2023-04-27T12:10:12.209Z,28.70
2023-04-27T12:12:39.882Z,28.60
2023-04-27T12:15:09.120Z,28.60
2023-04-27T12:17:37.191Z,28.50
2023-04-27T12:20:05.961Z,28.60
2023-04-27T12:22:33.744Z,28.70
2023-04-27T12:25:02.796Z,28.70
2023-04-27T12:27:30.690Z,28.60
2023-04-27T12:29:59.371Z,28.50
2023-04-27T12:32:27.923Z,28.50
2023-04-27T12:34:55.773Z,28.50
2023-04-27T12:37:25.500Z,28.40
2023-04-27T12:39:54.859Z,28.50
2023-04-27T12:42:24.190Z,28.50
2023-04-27T12:44:52.046Z,28.30
2023-04-27T12:47:40.552Z,28.50
2023-04-27T12:50:09.623Z,28.50
2023-04-27T12:52:37.547Z,28.40
2023-04-27T12:55:06.377Z,28.30
2023-04-27T12:57:35.939Z,28.20
2023-04-27T13:00:05.444Z,28.30
2023-04-27T13:02:34.005Z,28.20
2023-04-27T13:05:01.792Z,28.20
2023-04-27T13:07:30.087Z,28.20
2023-04-27T13:09:57.826Z,28.10
2023-04-27T13:12:25.627Z,28.10
2023-04-27T13:14:54.723Z,28.00
2023-04-27T13:17:22.484Z,27.90
2023-04-27T13:19:50.335Z,27.80
2023-04-27T13:22:18.075Z,27.80
2023-04-27T13:24:45.758Z,27.70
2023-04-27T13:27:13.454Z,27.70
2023-04-27T13:29:42.372Z,27.60
2023-04-27T13:32:11.430Z,27.50
2023-04-27T13:34:39.522Z,27.60
2023-04-27T13:37:07.461Z,27.60
2023-04-27T13:39:37.491Z,27.50
2023-04-27T13:42:06.187Z,27.40
2023-04-27T13:44:33.977Z,27.30
2023-04-27T13:47:01.808Z,27.30
2023-04-27T13:49:30.977Z,27.20
2023-04-27T13:51:59.280Z,27.20
2023-04-27T13:54:27.212Z,27.20
2023-04-27T13:56:54.904Z,27.10
2023-04-27T13:59:22.601Z,27.20
2023-04-27T14:01:50.323Z,27.30
2023-04-27T14:04:18.069Z,27.40
2023-04-27T14:06:48.120Z,27.30
2023-04-27T14:09:16.976Z,27.50
2023-04-27T14:11:55.576Z,27.30
2023-04-27T14:14:24.564Z,27.50
2023-04-27T14:16:53.015Z,27.50
2023-04-27T14:19:21.480Z,27.50
2023-04-27T14:21:51.596Z,27.50
2023-04-27T14:24:19.277Z,27.50
2023-04-27T14:26:47.595Z,27.50
2023-04-27T14:29:15.698Z,27.50
2023-04-27T14:31:43.706Z,27.60
2023-04-27T14:34:11.668Z,27.60
2023-04-27T14:36:39.625Z,27.70
2023-04-27T14:39:09.506Z,27.90
2023-04-27T14:41:37.470Z,28.20
2023-04-27T14:44:07.354Z,28.40
2023-04-27T14:46:35.128Z,28.50
2023-04-27T14:49:02.918Z,28.70
2023-04-27T14:51:32.566Z,28.70
2023-04-27T14:54:00.496Z,28.70
2023-04-27T14:56:29.548Z,28.70
2023-04-27T14:58:57.278Z,28.60
2023-04-27T15:01:25.113Z,28.60
2023-04-27T15:03:54.144Z,28.60
2023-04-27T15:06:24.035Z,28.50
2023-04-27T15:08:51.733Z,28.60
2023-04-27T15:11:19.627Z,28.50
2023-04-27T15:13:48.690Z,28.40
2023-04-27T15:16:16.431Z,28.40
2023-04-27T15:18:44.248Z,28.50
2023-04-27T15:21:12.080Z,28.50
2023-04-27T15:23:40.033Z,28.50
2023-04-27T15:26:07.733Z,28.40
2023-04-27T15:28:36.217Z,28.40
2023-04-27T15:31:05.696Z,28.20
2023-04-27T15:33:33.843Z,28.20
2023-04-27T15:36:02.065Z,28.20
2023-04-27T15:38:29.944Z,28.10
2023-04-27T15:40:57.736Z,27.90
2023-04-27T15:43:25.466Z,27.90
2023-04-27T15:45:53.250Z,27.90
2023-04-27T15:48:22.351Z,27.90
2023-04-27T15:50:50.150Z,27.90
2023-04-27T15:53:17.891Z,27.90
2023-04-27T15:55:45.764Z,27.90
2023-04-27T15:58:13.569Z,27.90
2023-04-27T16:00:41.905Z,27.80
2023-04-27T16:03:11.336Z,27.80
2023-04-27T16:05:40.802Z,27.60
2023-04-27T16:08:08.527Z,27.60
2023-04-27T16:10:36.433Z,27.60
2023-04-27T16:13:04.244Z,27.60
2023-04-27T16:15:32.036Z,27.60
2023-04-27T16:17:59.815Z,27.50
2023-04-27T16:20:29.478Z,27.50
2023-04-27T16:22:58.566Z,27.50
2023-04-27T16:25:26.328Z,27.40
2023-04-27T16:27:54.165Z,27.40
2023-04-27T16:30:23.552Z,27.40
2023-04-27T16:32:51.630Z,27.30
2023-04-27T16:35:19.373Z,27.30
2023-04-27T16:37:49.388Z,27.30
2023-04-27T16:40:18.551Z,27.20
2023-04-27T16:42:46.288Z,27.10
2023-04-27T16:45:14.016Z,26.80
2023-04-27T16:47:41.783Z,26.60
2023-04-27T16:50:10.585Z,26.50
2023-04-27T16:52:38.302Z,26.40
2023-04-27T16:55:07.217Z,26.40
2023-04-27T16:57:36.954Z,26.40
2023-04-27T17:00:06.382Z,26.40
2023-04-27T17:02:34.242Z,26.40
2023-04-27T17:05:03.207Z,26.40
2023-04-27T17:07:32.580Z,26.40
2023-04-27T17:10:00.570Z,26.40
2023-04-27T17:12:28.393Z,26.40
2023-04-27T17:14:57.434Z,26.30
2023-04-27T17:17:25.152Z,26.40
2023-04-27T17:19:53.261Z,26.30
2023-04-27T17:22:21.105Z,26.30
2023-04-27T17:24:48.807Z,26.30
2023-04-27T17:27:16.608Z,26.30
2023-04-27T17:29:44.314Z,26.20
2023-04-27T17:32:13.399Z,26.20
2023-04-27T17:34:42.971Z,26.20
2023-04-27T17:37:10.880Z,26.20
2023-04-27T17:39:38.630Z,26.20
2023-04-27T17:42:06.813Z,26.20
2023-04-27T17:44:35.168Z,26.10
2023-04-27T17:47:02.934Z,26.10
2023-04-27T17:49:32.812Z,26.10
2023-04-27T17:52:00.621Z,26.10
2023-04-27T17:54:30.075Z,26.10
2023-04-27T17:56:58.098Z,26.00
2023-04-27T17:59:25.913Z,26.00
2023-04-27T18:01:53.654Z,26.00
2023-04-27T18:04:21.670Z,25.90
2023-04-27T18:06:51.292Z,25.90
2023-04-27T18:09:19.023Z,25.90
2023-04-27T18:11:46.730Z,25.90
2023-04-27T18:14:14.548Z,25.80
2023-04-27T18:16:42.914Z,25.80
2023-04-27T18:19:11.021Z,25.80
2023-04-27T18:21:38.800Z,25.70
2023-04-27T18:24:08.670Z,25.70
2023-04-27T18:26:36.534Z,25.60
2023-04-27T18:29:04.264Z,25.60
2023-04-27T18:31:32.050Z,25.60
2023-04-27T18:34:00.174Z,25.60
2023-04-27T18:36:28.549Z,25.50
2023-04-27T18:38:57.948Z,25.50
2023-04-27T18:41:27.080Z,25.50
2023-04-27T18:43:54.774Z,25.50
2023-04-27T18:46:22.533Z,25.40
2023-04-27T18:48:50.283Z,25.40
2023-04-27T18:51:18.005Z,25.40
2023-04-27T18:53:45.790Z,25.40
2023-04-27T18:56:14.516Z,25.30
2023-04-27T18:58:43.544Z,25.30
2023-04-27T19:01:12.001Z,25.30
2023-04-27T19:03:40.277Z,25.20
2023-04-27T19:06:08.043Z,25.20
2023-04-27T19:08:35.723Z,25.20
2023-04-27T19:11:03.386Z,25.20
2023-04-27T19:13:31.093Z,25.20
2023-04-27T19:16:00.417Z,25.10
2023-04-27T19:18:28.424Z,25.10
2023-04-27T19:20:57.834Z,25.10
2023-04-27T19:23:25.524Z,25.10
2023-04-27T19:25:55.114Z,25.10
2023-04-27T19:28:25.203Z,25.00
2023-04-27T19:30:52.996Z,25.00
2023-04-27T19:33:22.534Z,25.00
2023-04-27T19:35:50.198Z,24.90
2023-04-27T19:38:17.845Z,24.90
2023-04-27T19:40:45.507Z,24.90
2023-04-27T19:43:13.881Z,24.90
2023-04-27T19:45:41.869Z,24.80
2023-04-27T19:48:09.846Z,24.80
2023-04-27T19:50:41.524Z,24.80
2023-04-27T19:53:09.234Z,24.80
2023-04-27T19:55:37.033Z,24.80
2023-04-27T19:58:04.749Z,24.70
2023-04-27T20:00:32.523Z,24.70
2023-04-27T20:03:00.407Z,24.70
2023-04-27T20:05:28.595Z,24.70
2023-04-27T20:07:57.741Z,24.60
2023-04-27T20:10:25.458Z,24.60
2023-04-27T20:12:57.197Z,24.60
2023-04-27T20:15:25.599Z,24.60
2023-04-27T20:17:53.364Z,24.50
2023-04-27T20:20:21.296Z,24.50
2023-04-27T20:22:49.388Z,24.50
2023-04-27T20:25:19.488Z,24.50
2023-04-27T20:27:47.267Z,24.50
2023-04-27T20:30:15.051Z,24.50
2023-04-27T20:32:42.740Z,24.40
2023-04-27T20:35:11.198Z,24.40
2023-04-27T20:37:39.185Z,24.40
2023-04-27T20:40:12.678Z,24.40
2023-04-27T20:42:43.393Z,24.30
2023-04-27T20:45:12.152Z,24.30
2023-04-27T20:47:39.928Z,24.30
2023-04-27T20:50:08.941Z,24.30
2023-04-27T20:52:36.700Z,24.30
2023-04-27T20:55:04.605Z,24.30
2023-04-27T20:57:32.345Z,24.20
2023-04-27T21:00:01.424Z,24.20
2023-04-27T21:02:29.115Z,24.20
2023-04-27T21:04:56.852Z,24.20
2023-04-27T21:07:24.610Z,24.20
2023-04-27T21:09:52.255Z,24.10
2023-04-27T21:12:19.914Z,24.10
2023-04-27T21:14:47.550Z,24.10
2023-04-27T21:17:16.523Z,24.10
2023-04-27T21:19:44.170Z,24.10
2023-04-27T21:22:11.808Z,24.00
2023-04-27T21:24:39.481Z,24.10
2023-04-27T21:27:07.128Z,24.00
2023-04-27T21:29:35.438Z,24.00
2023-04-27T21:32:03.181Z,24.00
2023-04-27T21:34:32.533Z,24.00
2023-04-27T21:37:00.418Z,24.00
2023-04-27T21:39:28.127Z,24.00
2023-04-27T21:41:55.821Z,24.00
2023-04-27T21:44:23.480Z,24.00
2023-04-27T21:46:51.297Z,23.90
2023-04-27T21:49:19.157Z,23.90
2023-04-27T21:51:48.129Z,23.90
2023-04-27T21:54:16.009Z,23.90
2023-04-27T21:56:43.873Z,23.80
2023-04-27T21:59:11.544Z,23.80
2023-04-27T22:01:39.199Z,23.80
2023-04-27T22:04:07.111Z,23.80
2023-04-27T22:06:35.674Z,23.80
2023-04-27T22:09:07.242Z,23.80
2023-04-27T22:11:35.736Z,23.80
2023-04-27T22:14:03.381Z,23.80
2023-04-27T22:16:31.175Z,23.70
2023-04-27T22:18:59.650Z,23.70
2023-04-27T22:21:28.767Z,23.70
2023-04-27T22:23:56.532Z,23.70
2023-04-27T22:26:25.727Z,23.70
2023-04-27T22:28:53.598Z,23.60
2023-04-27T22:31:21.771Z,23.60
2023-04-27T22:33:49.474Z,23.60
2023-04-27T22:36:17.116Z,23.60
2023-04-27T22:38:44.833Z,23.60
2023-04-27T22:41:12.514Z,23.60
2023-04-27T22:43:41.492Z,23.60
2023-04-27T22:46:09.170Z,23.60
2023-04-27T22:48:36.862Z,23.50
2023-04-27T22:51:08.981Z,23.50
2023-04-27T22:53:36.649Z,23.50
2023-04-27T22:56:05.695Z,23.50
2023-04-27T22:58:33.377Z,23.50
2023-04-27T23:01:02.425Z,23.50
2023-04-27T23:03:30.301Z,23.50
2023-04-27T23:06:00.685Z,23.50
2023-04-27T23:08:28.873Z,23.50
2023-04-27T23:10:56.719Z,23.50
2023-04-27T23:13:26.611Z,23.40
2023-04-27T23:15:55.158Z,23.40
2023-04-27T23:18:24.145Z,23.40
2023-04-27T23:20:54.072Z,23.40
2023-04-27T23:23:21.799Z,23.40
2023-04-27T23:25:49.448Z,23.40
2023-04-27T23:28:17.088Z,23.30
2023-04-27T23:30:44.793Z,23.30
2023-04-27T23:33:12.881Z,23.30
2023-04-27T23:35:41.860Z,23.30
2023-04-27T23:38:09.509Z,23.30
2023-04-27T23:40:37.247Z,23.30
2023-04-27T23:43:04.931Z,23.30
2023-04-27T23:45:32.576Z,23.20
2023-04-27T23:48:00.468Z,23.20
2023-04-27T23:50:28.135Z,23.20
2023-04-27T23:52:57.087Z,23.20
2023-04-27T23:55:24.756Z,23.20
2023-04-27T23:57:52.541Z,23.10
